createdAt,value
2022-11-20T00:04:42.010Z,7.08
2022-11-20T00:09:48.164Z,7.37
2022-11-20T00:14:54.481Z,7.31
2022-11-20T00:20:00.711Z,7.50
2022-11-20T00:25:06.974Z,10.89
2022-11-20T00:30:14.962Z,6.80
2022-11-20T00:35:20.071Z,6.73
2022-11-20T00:45:26.454Z,7.24
2022-11-20T00:50:32.722Z,6.98
2022-11-20T00:55:40.146Z,7.20
2022-11-20T01:00:46.510Z,7.17
2022-11-20T01:05:55.010Z,10.52
2022-11-20T01:11:01.284Z,9.97
2022-11-20T01:16:07.564Z,9.95
2022-11-20T01:21:13.822Z,7.19
2022-11-20T01:26:20.068Z,6.77
2022-11-20T01:31:26.341Z,7.31
2022-11-20T01:36:33.479Z,10.21
2022-11-20T01:41:39.868Z,6.87
2022-11-20T01:51:46.639Z,6.64
2022-11-20T01:56:53.004Z,6.48
2022-11-20T02:02:00.593Z,6.88
2022-11-20T02:07:06.930Z,6.79
2022-11-20T02:12:13.084Z,6.61
2022-11-20T02:17:19.435Z,6.78
2022-11-20T02:27:35.552Z,6.79
2022-11-20T02:32:41.797Z,6.07
2022-11-20T02:37:48.009Z,6.29
2022-11-20T02:42:54.246Z,6.44
2022-11-20T02:48:00.469Z,6.76
2022-11-20T02:53:06.742Z,6.81
2022-11-20T02:58:12.904Z,6.93
2022-11-20T03:03:19.118Z,7.36
2022-11-20T03:08:25.335Z,7.53
2022-11-20T03:13:34.283Z,11.08
2022-11-20T03:18:39.578Z,7.34
2022-11-20T03:23:45.820Z,7.47
2022-11-20T03:28:52.059Z,11.56
2022-11-20T03:33:58.319Z,7.84
2022-11-20T03:39:04.537Z,7.75
2022-11-20T03:44:10.842Z,7.49
2022-11-20T03:49:17.097Z,10.99
2022-11-20T03:54:27.813Z,7.76
2022-11-20T03:59:34.295Z,7.93
2022-11-20T04:04:47.633Z,8.19
2022-11-20T04:09:45.857Z,8.03
2022-11-20T04:14:55.367Z,8.04
2022-11-20T04:20:01.526Z,8.25
2022-11-20T04:25:09.172Z,8.35
2022-11-20T04:30:20.897Z,8.70
2022-11-20T04:35:20.237Z,12.67
2022-11-20T04:40:28.490Z,13.80
2022-11-20T04:45:41.246Z,7.99
2022-11-20T04:50:42.071Z,13.03
2022-11-20T04:55:48.492Z,7.95
2022-11-20T05:01:00.605Z,8.21
2022-11-20T05:06:00.509Z,7.61
2022-11-20T05:11:06.044Z,7.87
2022-11-20T05:16:07.029Z,7.67
2022-11-20T05:21:03.624Z,7.57
2022-11-20T05:26:13.405Z,11.35
2022-11-20T05:31:27.736Z,7.15
2022-11-20T05:36:24.531Z,10.91
2022-11-20T05:41:28.098Z,7.30
2022-11-20T05:46:28.536Z,6.95
2022-11-20T05:51:37.647Z,10.06
2022-11-20T05:56:42.284Z,6.96
2022-11-20T06:01:52.638Z,7.33
2022-11-20T06:06:51.966Z,6.72
2022-11-20T06:11:43.631Z,7.64
2022-11-20T06:16:49.974Z,6.97
2022-11-20T06:21:57.425Z,7.36
2022-11-20T06:27:10.417Z,7.55
2022-11-20T06:32:07.330Z,11.03
2022-11-20T06:37:16.648Z,7.50
2022-11-20T06:42:26.915Z,7.26
2022-11-20T06:47:36.919Z,7.58
2022-11-20T06:52:43.500Z,7.32
2022-11-20T06:57:43.991Z,7.19
2022-11-20T07:02:43.368Z,7.66
2022-11-20T07:08:09.414Z,7.68
2022-11-20T07:12:59.414Z,7.38
2022-11-20T07:18:06.147Z,7.99
2022-11-20T07:23:16.718Z,7.73
2022-11-20T07:28:17.613Z,10.38
2022-11-20T07:33:25.123Z,9.19
2022-11-20T07:38:48.234Z,8.18
2022-11-20T07:43:40.835Z,8.32
2022-11-20T07:48:32.725Z,8.23
2022-11-20T07:53:44.562Z,8.32
2022-11-20T07:58:43.209Z,12.93
2022-11-20T08:03:51.066Z,8.94
2022-11-20T08:09:10.060Z,9.14
2022-11-20T08:14:11.318Z,13.80
2022-11-20T08:19:12.851Z,9.67
2022-11-20T08:25:10.952Z,9.07
2022-11-20T08:29:13.501Z,9.07
2022-11-20T08:34:18.727Z,9.04
2022-11-20T08:39:24.353Z,9.66
2022-11-20T08:44:35.716Z,9.15
2022-11-20T08:49:36.100Z,9.75
2022-11-20T08:54:37.266Z,9.62
2022-11-20T09:00:04.522Z,9.29
2022-11-20T09:04:35.584Z,9.19
2022-11-20T09:09:42.162Z,9.62
2022-11-20T09:19:58.214Z,9.45
2022-11-20T09:25:05.514Z,9.88
2022-11-20T09:30:11.859Z,10.47
2022-11-20T09:35:18.165Z,10.48
2022-11-20T09:40:24.504Z,15.43
2022-11-20T09:45:33.899Z,10.65
2022-11-20T09:50:40.338Z,10.51
2022-11-20T09:55:48.466Z,10.77
2022-11-20T10:00:55.853Z,10.98
2022-11-20T10:06:02.590Z,10.79
2022-11-20T10:11:09.019Z,15.58
2022-11-20T10:16:17.508Z,15.92
2022-11-20T10:21:24.629Z,10.37
2022-11-20T10:26:31.033Z,16.07
2022-11-20T10:31:37.348Z,14.71
2022-11-20T10:36:45.012Z,9.90
2022-11-20T10:41:51.782Z,10.95
2022-11-20T10:46:58.452Z,10.42
2022-11-20T10:57:14.245Z,10.01
2022-11-20T11:02:21.897Z,10.37
2022-11-20T11:07:28.197Z,10.61
2022-11-20T11:12:34.454Z,15.22
2022-11-20T11:17:40.715Z,9.66
2022-11-20T11:22:48.175Z,10.84
2022-11-20T11:27:54.592Z,11.53
2022-11-20T11:33:00.951Z,10.71
2022-11-20T11:38:09.571Z,10.69
2022-11-20T11:43:15.820Z,11.23
2022-11-20T11:48:22.246Z,10.69
2022-11-20T11:53:28.540Z,11.64
2022-11-20T12:03:44.528Z,18.02
2022-11-20T12:08:50.768Z,12.05
2022-11-20T12:13:57.235Z,11.05
2022-11-20T12:19:04.768Z,10.97
2022-11-20T12:24:12.807Z,10.80
2022-11-20T12:29:18.129Z,15.66
2022-11-20T12:34:25.620Z,10.69
2022-11-20T12:39:32.035Z,15.95
2022-11-20T12:44:38.579Z,10.31
2022-11-20T12:49:44.910Z,10.82
2022-11-20T12:54:52.432Z,9.97
2022-11-20T12:59:58.746Z,10.23
2022-11-20T13:05:08.381Z,10.15
2022-11-20T13:10:15.636Z,9.84
2022-11-20T13:15:22.013Z,9.78
2022-11-20T13:20:28.291Z,8.96
2022-11-20T13:25:34.596Z,9.27
2022-11-20T13:30:42.719Z,9.09
2022-11-20T13:40:51.088Z,9.36
2022-11-20T13:46:06.088Z,14.72
2022-11-20T13:51:00.362Z,14.19
2022-11-20T13:56:08.139Z,9.41
2022-11-20T14:01:13.689Z,9.44
2022-11-20T14:06:19.890Z,10.20
2022-11-20T14:11:26.179Z,9.47
2022-11-20T14:16:35.592Z,9.28
2022-11-20T14:21:41.900Z,10.18
2022-11-20T14:26:48.257Z,12.87
2022-11-20T14:31:54.749Z,8.81
2022-11-20T14:37:00.810Z,8.61
2022-11-20T14:42:08.528Z,9.00
2022-11-20T14:47:14.492Z,13.68
2022-11-20T14:52:20.991Z,8.62
2022-11-20T14:57:27.292Z,8.50
2022-11-20T15:02:33.717Z,8.82
2022-11-20T15:07:40.045Z,8.63
2022-11-20T15:12:46.333Z,12.51
2022-11-20T15:17:52.938Z,8.93
2022-11-20T15:22:59.335Z,9.64
2022-11-20T15:28:05.823Z,13.67
2022-11-20T15:33:12.125Z,13.34
2022-11-20T15:38:19.851Z,12.09
2022-11-20T15:43:26.250Z,11.52
2022-11-20T15:48:32.619Z,7.75
2022-11-20T15:53:38.934Z,7.84
2022-11-20T15:58:47.062Z,6.71
2022-11-20T16:03:54.586Z,5.57
2022-11-20T16:09:02.369Z,4.95
2022-11-20T16:14:08.666Z,6.24
2022-11-20T16:19:15.128Z,3.35
2022-11-20T16:24:25.749Z,3.56
2022-11-20T16:29:31.596Z,6.11
2022-11-20T16:34:57.920Z,4.00
2022-11-20T16:39:42.704Z,4.23
2022-11-20T16:44:49.114Z,3.85
2022-11-20T16:49:55.403Z,3.27
2022-11-20T16:55:01.705Z,2.72
2022-11-20T17:00:08.059Z,2.62
2022-11-20T17:05:14.294Z,2.68
2022-11-20T17:10:20.131Z,4.03
2022-11-20T17:15:28.100Z,2.91
2022-11-20T17:20:33.871Z,3.76
2022-11-20T17:25:40.308Z,3.71
2022-11-20T17:30:47.911Z,7.48
2022-11-20T17:35:54.333Z,6.44
2022-11-20T17:41:13.372Z,4.77
2022-11-20T17:46:01.967Z,6.64
2022-11-20T17:51:09.470Z,6.51
2022-11-20T17:56:15.753Z,5.88
2022-11-20T18:01:22.053Z,3.56
2022-11-20T18:06:45.217Z,3.71
2022-11-20T18:11:31.661Z,3.23
2022-11-20T18:16:38.008Z,3.37
2022-11-20T18:21:46.772Z,4.72
2022-11-20T18:26:54.506Z,4.31
2022-11-20T18:32:01.375Z,2.45
2022-11-20T18:37:09.965Z,4.43
2022-11-20T18:42:16.351Z,4.03
2022-11-20T18:47:24.612Z,2.82
2022-11-20T18:52:34.428Z,1.92
2022-11-20T18:57:56.122Z,1.94
2022-11-20T19:02:46.296Z,2.01
2022-11-20T19:07:47.443Z,1.97
2022-11-20T19:12:45.396Z,4.39
2022-11-20T19:17:56.991Z,2.01
2022-11-20T19:22:58.823Z,1.95
2022-11-20T19:27:57.121Z,2.31
2022-11-20T19:33:05.447Z,1.73
2022-11-20T19:38:11.723Z,1.92
2022-11-20T19:43:18.718Z,2.33
2022-11-20T19:48:25.696Z,3.55
2022-11-20T19:53:34.473Z,2.64
2022-11-20T19:58:47.085Z,2.53
2022-11-20T20:03:44.811Z,4.57
2022-11-20T20:08:57.101Z,3.13
2022-11-20T20:13:57.750Z,4.18
2022-11-20T20:19:07.802Z,2.23
2022-11-20T20:24:13.745Z,2.57
2022-11-20T20:29:25.244Z,2.18
2022-11-20T20:34:20.577Z,1.92
2022-11-20T20:39:26.968Z,1.99
2022-11-20T20:44:33.383Z,2.05
2022-11-20T20:49:39.972Z,2.36
2022-11-20T20:54:46.200Z,2.59
2022-11-20T20:59:52.503Z,1.52
2022-11-20T21:04:58.787Z,1.66
2022-11-20T21:10:05.146Z,1.71
2022-11-20T21:15:11.469Z,1.58
2022-11-20T21:20:17.797Z,1.65
2022-11-20T21:25:24.092Z,1.66
2022-11-20T21:30:37.255Z,2.47
2022-11-20T21:35:30.540Z,1.66
2022-11-20T21:40:36.867Z,1.42
2022-11-20T21:45:43.191Z,1.50
2022-11-20T21:50:50.601Z,1.80
2022-11-20T21:55:56.967Z,2.32
2022-11-20T22:01:04.683Z,2.83
2022-11-20T22:06:10.940Z,2.17
2022-11-20T22:11:17.221Z,1.94
2022-11-20T22:16:23.408Z,1.60
2022-11-20T22:21:29.708Z,2.03
2022-11-20T22:26:39.877Z,1.85
2022-11-20T22:31:41.952Z,2.01
2022-11-20T22:36:53.973Z,1.92
2022-11-20T22:41:49.104Z,1.92
2022-11-20T22:46:56.536Z,2.80
2022-11-20T22:52:02.914Z,3.20
2022-11-20T22:57:11.480Z,2.28
2022-11-20T23:02:17.942Z,2.30
2022-11-20T23:12:24.343Z,2.09
2022-11-20T23:17:31.766Z,2.29
2022-11-20T23:22:38.022Z,2.89
2022-11-20T23:27:44.455Z,2.64
2022-11-20T23:32:50.698Z,2.49
2022-11-20T23:37:57.144Z,3.24
2022-11-20T23:43:06.811Z,2.78
2022-11-20T23:48:13.278Z,2.53
2022-11-20T23:53:19.651Z,3.92
2022-11-20T23:58:25.939Z,3.55
